メインページ
METAR-TAF:

METAR-TAF

空港 :

ケベック・シティー, ケベック州, カナダ

ケベック・ジャン・ルサージ国際空港

緯度: 46-48N, 経度: 071-23W, 海抜: 70m

現時点の気象観測

当レポートは21分前の10:44(UTC)に作成
東/北東の風 5kt
気温 16°C
湿度 94%
気圧 1019 hPa
視程: 8.0km
高度300ftの雲は散在している
高度22000ftの千切れ雲あり

METAR: CYQB 201044Z 07005KT 5SM BR SCT003 BKN220 16/15 A3008 RMK SF4CI2 SLP187 DENSITY ALT 300FT

時間: 07:05 (11:05 UTC)

予報

当レポートは5時間27分前の05:38(UTC)に作成
予報は20日の 06時(UTC)から 21日の 06時(UTC)まで有効
北/北東の風 5kt
視程: 10km
高度12000ftの千切れ雲あり
20日の 06時(UTC)から 20日の 14時(UTC)まで一時的に
視程: 3.2km
高度500ftの千切れ雲あり
確率 30%
20日の 08時(UTC)から 20日の 14時(UTC)まで
視程: 0.4km
高度100ftの
20日の 1500時(UTC)から
東/北東の風 13kt
視程: 10km
高度2000ftの曇り
20日の 1800時(UTC)から
東/北東の風 10kt
視程: 10km
高度3000ftの雲は散在している

TAF: CYQB 200538Z 2006/2106 03005KT P6SM BKN120 TEMPO 2006/2014 2SM BR BKN005 PROB30 2008/2014 1/4SM FG VV001 FM201500 07013KT P6SM OVC020 FM201800 07010KT P6SM SCT030 RMK NXT FCST BY 201200Z

4,000以上の空港の気象観測と天気予報(METAR報とTAF報)

利用可能な観測所は地図上に黄色い丸と赤い丸で示す。

丸の上にカーソルを重ねると観測所名を参照できる。

次にクリックすると気象観測と天気予報を参照できる。

マップの切り替え:黒色「×」印の緑ボタンをクリックして拡大、「-」印の緑ボタンをクリックして縮小、緑色の三角印をクリックして隣りの地図に切り替え


METAR-TAF: